sensor_id;sensor_type;location;lat;lon;timestamp;P1;durP1;ratioP1;P2;durP2;ratioP2
73315;SDS011;61545;53.726;-0.444;2023-07-20T00:00:19;3.0;;;1.1;;
73315;SDS011;61545;53.726;-0.444;2023-07-20T00:05:19;5.1;;;1.3;;
73315;SDS011;61545;53.726;-0.444;2023-07-20T00:10:19;11.2;;;1.6;;
73315;SDS011;61545;53.726;-0.444;2023-07-20T00:15:19;5.4;;;1.3;;
73315;SDS011;61545;53.726;-0.444;2023-07-20T00:20:19;4.4;;;1.4;;
73315;SDS011;61545;53.726;-0.444;2023-07-20T00:25:19;3.8;;;1.5;;
73315;SDS011;61545;53.726;-0.444;2023-07-20T00:30:19;3.8;;;1.5;;
73315;SDS011;61545;53.726;-0.444;2023-07-20T00:35:19;3.2;;;1.6;;
73315;SDS011;61545;53.726;-0.444;2023-07-20T00:40:19;6.8;;;1.8;;
73315;SDS011;61545;53.726;-0.444;2023-07-20T00:45:19;3.2;;;1.6;;
73315;SDS011;61545;53.726;-0.444;2023-07-20T00:50:19;3.3;;;1.6;;
73315;SDS011;61545;53.726;-0.444;2023-07-20T00:55:19;3.7;;;1.5;;
73315;SDS011;61545;53.726;-0.444;2023-07-20T01:00:19;3.7;;;1.5;;
73315;SDS011;61545;53.726;-0.444;2023-07-20T01:05:19;6.2;;;1.6;;
73315;SDS011;61545;53.726;-0.444;2023-07-20T01:10:23;3.1;;;1.5;;
73315;SDS011;61545;53.726;-0.444;2023-07-20T01:15:19;3.3;;;1.7;;
73315;SDS011;61545;53.726;-0.444;2023-07-20T01:20:20;2.5;;;1.8;;
73315;SDS011;61545;53.726;-0.444;2023-07-20T01:25:24;3.0;;;1.9;;
73315;SDS011;61545;53.726;-0.444;2023-07-20T01:30:28;3.0;;;1.9;;
73315;SDS011;61545;53.726;-0.444;2023-07-20T01:35:19;5.6;;;2.2;;
73315;SDS011;61545;53.726;-0.444;2023-07-20T01:40:19;3.3;;;2.1;;
73315;SDS011;61545;53.726;-0.444;2023-07-20T01:45:19;5.7;;;2.3;;
73315;SDS011;61545;53.726;-0.444;2023-07-20T01:50:19;9.6;;;2.8;;
73315;SDS011;61545;53.726;-0.444;2023-07-20T01:55:19;9.6;;;2.8;;
73315;SDS011;61545;53.726;-0.444;2023-07-20T02:00:19;6.7;;;2.8;;
73315;SDS011;61545;53.726;-0.444;2023-07-20T02:05:19;7.0;;;3.3;;
73315;SDS011;61545;53.726;-0.444;2023-07-20T02:10:19;11.0;;;3.2;;
73315;SDS011;61545;53.726;-0.444;2023-07-20T02:15:19;5.4;;;3.2;;
73315;SDS011;61545;53.726;-0.444;2023-07-20T02:20:19;5.7;;;3.1;;
73315;SDS011;61545;53.726;-0.444;2023-07-20T02:25:19;5.7;;;3.1;;
73315;SDS011;61545;53.726;-0.444;2023-07-20T02:30:19;9.1;;;4.1;;
73315;SDS011;61545;53.726;-0.444;2023-07-20T02:35:19;6.0;;;3.7;;
73315;SDS011;61545;53.726;-0.444;2023-07-20T02:40:19;8.7;;;4.5;;
73315;SDS011;61545;53.726;-0.444;2023-07-20T02:45:19;8.7;;;5.3;;
73315;SDS011;61545;53.726;-0.444;2023-07-20T02:50:19;8.3;;;4.8;;
73315;SDS011;61545;53.726;-0.444;2023-07-20T02:55:19;8.3;;;4.8;;
73315;SDS011;61545;53.726;-0.444;2023-07-20T03:00:19;9.8;;;4.4;;
73315;SDS011;61545;53.726;-0.444;2023-07-20T03:05:19;6.5;;;3.9;;
73315;SDS011;61545;53.726;-0.444;2023-07-20T03:10:19;11.0;;;4.7;;
73315;SDS011;61545;53.726;-0.444;2023-07-20T03:15:19;10.5;;;4.3;;
73315;SDS011;61545;53.726;-0.444;2023-07-20T03:20:19;7.1;;;3.7;;
73315;SDS011;61545;53.726;-0.444;2023-07-20T03:25:19;7.1;;;3.7;;
73315;SDS011;61545;53.726;-0.444;2023-07-20T03:30:19;7.4;;;3.4;;
73315;SDS011;61545;53.726;-0.444;2023-07-20T03:35:19;7.7;;;3;;
73315;SDS011;61545;53.726;-0.444;2023-07-20T03:40:19;7.7;;;3.4;;
73315;SDS011;61545;53.726;-0.444;2023-07-20T03:45:19;7.7;;;2.8;;
73315;SDS011;61545;53.726;-0.444;2023-07-20T03:50:19;8.7;;;3;;
73315;SDS011;61545;53.726;-0.444;2023-07-20T03:55:19;8.7;;;3;;
73315;SDS011;61545;53.726;-0.444;2023-07-20T04:00:20;6.8;;;2.8;;
73315;SDS011;61545;53.726;-0.444;2023-07-20T04:05:19;6.8;;;2.8;;
73315;SDS011;61545;53.726;-0.444;2023-07-20T04:10:19;7.8;;;3.1;;
73315;SDS011;61545;53.726;-0.444;2023-07-20T04:15:19;5.7;;;2.8;;
73315;SDS011;61545;53.726;-0.444;2023-07-20T04:20:19;7.3;;;3.2;;
73315;SDS011;61545;53.726;-0.444;2023-07-20T04:25:19;7.3;;;3.2;;
73315;SDS011;61545;53.726;-0.444;2023-07-20T04:30:19;7.4;;;3.4;;
73315;SDS011;61545;53.726;-0.444;2023-07-20T04:35:45;6.8;;;3.6;;
73315;SDS011;61545;53.726;-0.444;2023-07-20T04:40:19;12.5;;;4.5;;
73315;SDS011;61545;53.726;-0.444;2023-07-20T04:45:19;7.6;;;3.6;;
73315;SDS011;61545;53.726;-0.444;2023-07-20T04:50:19;6.6;;;2.7;;
73315;SDS011;61545;53.726;-0.444;2023-07-20T04:55:19;6.6;;;2.7;;
73315;SDS011;61545;53.726;-0.444;2023-07-20T05:00:20;6.5;;;2.5;;
73315;SDS011;61545;53.726;-0.444;2023-07-20T05:05:19;7.1;;;2.7;;
73315;SDS011;61545;53.726;-0.444;2023-07-20T05:10:19;7.0;;;2.8;;
73315;SDS011;61545;53.726;-0.444;2023-07-20T05:15:19;6.6;;;3.1;;
73315;SDS011;61545;53.726;-0.444;2023-07-20T05:20:19;4.7;;;3.2;;
73315;SDS011;61545;53.726;-0.444;2023-07-20T05:25:19;4.7;;;3.2;;
73315;SDS011;61545;53.726;-0.444;2023-07-20T05:30:19;5.8;;;3.3;;
73315;SDS011;61545;53.726;-0.444;2023-07-20T05:35:19;7.8;;;3.1;;
73315;SDS011;61545;53.726;-0.444;2023-07-20T05:40:19;6.8;;;3;;
73315;SDS011;61545;53.726;-0.444;2023-07-20T05:45:19;6.9;;;3;;
73315;SDS011;61545;53.726;-0.444;2023-07-20T05:50:19;5.1;;;2.6;;
73315;SDS011;61545;53.726;-0.444;2023-07-20T05:55:19;5.1;;;2.6;;
73315;SDS011;61545;53.726;-0.444;2023-07-20T06:00:19;6.2;;;2.6;;
73315;SDS011;61545;53.726;-0.444;2023-07-20T06:05:19;6.1;;;2.5;;
73315;SDS011;61545;53.726;-0.444;2023-07-20T06:10:19;7.3;;;3;;
73315;SDS011;61545;53.726;-0.444;2023-07-20T06:15:27;8.9;;;2.6;;
73315;SDS011;61545;53.726;-0.444;2023-07-20T06:20:19;6.2;;;2.4;;
73315;SDS011;61545;53.726;-0.444;2023-07-20T06:25:19;6.2;;;2.4;;
73315;SDS011;61545;53.726;-0.444;2023-07-20T06:30:19;6.8;;;2.7;;
73315;SDS011;61545;53.726;-0.444;2023-07-20T06:35:19;6.4;;;3.1;;
73315;SDS011;61545;53.726;-0.444;2023-07-20T06:40:20;3.8;;;2.3;;
73315;SDS011;61545;53.726;-0.444;2023-07-20T06:45:19;6.0;;;2.4;;
73315;SDS011;61545;53.726;-0.444;2023-07-20T06:50:19;4.1;;;2.2;;
73315;SDS011;61545;53.726;-0.444;2023-07-20T06:55:19;4.1;;;2.2;;
73315;SDS011;61545;53.726;-0.444;2023-07-20T07:00:20;10.0;;;3.2;;
73315;SDS011;61545;53.726;-0.444;2023-07-20T07:05:19;10.3;;;3.2;;
73315;SDS011;61545;53.726;-0.444;2023-07-20T07:10:19;8.2;;;3;;
73315;SDS011;61545;53.726;-0.444;2023-07-20T07:15:19;8.4;;;3.2;;
73315;SDS011;61545;53.726;-0.444;2023-07-20T07:20:19;9.4;;;3.1;;
73315;SDS011;61545;53.726;-0.444;2023-07-20T07:25:19;9.4;;;3.1;;
73315;SDS011;61545;53.726;-0.444;2023-07-20T07:30:19;7.3;;;3;;
73315;SDS011;61545;53.726;-0.444;2023-07-20T07:35:19;6.4;;;3.2;;
73315;SDS011;61545;53.726;-0.444;2023-07-20T07:40:19;4.8;;;2.6;;
73315;SDS011;61545;53.726;-0.444;2023-07-20T07:45:19;5.3;;;2.9;;
73315;SDS011;61545;53.726;-0.444;2023-07-20T07:50:19;8.4;;;3.1;;
73315;SDS011;61545;53.726;-0.444;2023-07-20T07:55:19;8.4;;;3.1;;
73315;SDS011;61545;53.726;-0.444;2023-07-20T08:00:19;7.3;;;3.6;;
73315;SDS011;61545;53.726;-0.444;2023-07-20T08:05:19;10.3;;;3.2;;
73315;SDS011;61545;53.726;-0.444;2023-07-20T08:10:19;13.3;;;3.5;;
73315;SDS011;61545;53.726;-0.444;2023-07-20T08:15:19;8.9;;;3.4;;
73315;SDS011;61545;53.726;-0.444;2023-07-20T08:20:19;7.4;;;3.7;;
73315;SDS011;61545;53.726;-0.444;2023-07-20T08:25:19;7.4;;;3.7;;
73315;SDS011;61545;53.726;-0.444;2023-07-20T08:30:21;7.8;;;3.5;;
73315;SDS011;61545;53.726;-0.444;2023-07-20T08:35:19;8.1;;;4.1;;
73315;SDS011;61545;53.726;-0.444;2023-07-20T08:40:19;8.7;;;4.2;;
73315;SDS011;61545;53.726;-0.444;2023-07-20T08:45:20;10.3;;;4.1;;
73315;SDS011;61545;53.726;-0.444;2023-07-20T08:50:19;9.5;;;4.1;;
73315;SDS011;61545;53.726;-0.444;2023-07-20T08:55:20;9.5;;;4.1;;
73315;SDS011;61545;53.726;-0.444;2023-07-20T09:00:20;8.6;;;3.9;;
73315;SDS011;61545;53.726;-0.444;2023-07-20T09:05:20;10.3;;;4.5;;
73315;SDS011;61545;53.726;-0.444;2023-07-20T09:10:20;10.3;;;4.9;;
73315;SDS011;61545;53.726;-0.444;2023-07-20T09:15:20;10.8;;;5.2;;
73315;SDS011;61545;53.726;-0.444;2023-07-20T09:20:20;13.3;;;5.7;;
73315;SDS011;61545;53.726;-0.444;2023-07-20T09:25:19;13.3;;;5.7;;
73315;SDS011;61545;53.726;-0.444;2023-07-20T09:30:19;9.1;;;5.2;;
73315;SDS011;61545;53.726;-0.444;2023-07-20T09:35:20;13.0;;;6.1;;
73315;SDS011;61545;53.726;-0.444;2023-07-20T09:40:19;6.6;;;5.1;;
73315;SDS011;61545;53.726;-0.444;2023-07-20T09:45:19;10.2;;;6.2;;
73315;SDS011;61545;53.726;-0.444;2023-07-20T09:50:20;12.9;;;6.5;;
73315;SDS011;61545;53.726;-0.444;2023-07-20T09:55:19;12.9;;;6.5;;
73315;SDS011;61545;53.726;-0.444;2023-07-20T10:00:20;10.6;;;5.8;;
73315;SDS011;61545;53.726;-0.444;2023-07-20T10:05:19;8.8;;;5;;
73315;SDS011;61545;53.726;-0.444;2023-07-20T10:10:19;9.9;;;5.9;;
73315;SDS011;61545;53.726;-0.444;2023-07-20T10:15:20;10.8;;;5.7;;
73315;SDS011;61545;53.726;-0.444;2023-07-20T10:20:20;8.0;;;5.1;;
73315;SDS011;61545;53.726;-0.444;2023-07-20T10:25:20;8.0;;;5.1;;
73315;SDS011;61545;53.726;-0.444;2023-07-20T10:30:19;8.5;;;5.5;;
73315;SDS011;61545;53.726;-0.444;2023-07-20T10:35:19;10.0;;;6.6;;
73315;SDS011;61545;53.726;-0.444;2023-07-20T10:40:28;9.9;;;5.6;;
73315;SDS011;61545;53.726;-0.444;2023-07-20T10:45:19;9.3;;;6.1;;
73315;SDS011;61545;53.726;-0.444;2023-07-20T10:50:19;10.3;;;5.6;;
73315;SDS011;61545;53.726;-0.444;2023-07-20T10:55:19;10.3;;;5.6;;
73315;SDS011;61545;53.726;-0.444;2023-07-20T11:00:20;9.4;;;5.3;;
73315;SDS011;61545;53.726;-0.444;2023-07-20T11:05:36;7.1;;;5.2;;
73315;SDS011;61545;53.726;-0.444;2023-07-20T11:10:20;11.0;;;5.9;;
73315;SDS011;61545;53.726;-0.444;2023-07-20T11:15:19;10.5;;;6.1;;
73315;SDS011;61545;53.726;-0.444;2023-07-20T11:20:19;8.4;;;5.8;;
73315;SDS011;61545;53.726;-0.444;2023-07-20T11:25:19;8.4;;;5.8;;
73315;SDS011;61545;53.726;-0.444;2023-07-20T11:30:19;12.7;;;6.4;;
73315;SDS011;61545;53.726;-0.444;2023-07-20T11:35:20;10.0;;;6;;
73315;SDS011;61545;53.726;-0.444;2023-07-20T11:40:19;8.5;;;5.5;;
73315;SDS011;61545;53.726;-0.444;2023-07-20T11:45:19;7.0;;;5.1;;
73315;SDS011;61545;53.726;-0.444;2023-07-20T11:50:19;7.3;;;5.4;;
73315;SDS011;61545;53.726;-0.444;2023-07-20T11:55:19;7.3;;;5.4;;
73315;SDS011;61545;53.726;-0.444;2023-07-20T12:00:20;7.0;;;5.5;;
73315;SDS011;61545;53.726;-0.444;2023-07-20T12:05:19;9.1;;;5.9;;
73315;SDS011;61545;53.726;-0.444;2023-07-20T12:10:23;7.6;;;5.5;;
73315;SDS011;61545;53.726;-0.444;2023-07-20T12:15:20;7.6;;;4.9;;
73315;SDS011;61545;53.726;-0.444;2023-07-20T12:20:28;7.9;;;5;;
73315;SDS011;61545;53.726;-0.444;2023-07-20T12:25:19;7.9;;;5;;
73315;SDS011;61545;53.726;-0.444;2023-07-20T12:30:19;6.6;;;4.7;;
73315;SDS011;61545;53.726;-0.444;2023-07-20T12:35:19;6.7;;;5;;
73315;SDS011;61545;53.726;-0.444;2023-07-20T12:40:20;7.4;;;5.2;;
73315;SDS011;61545;53.726;-0.444;2023-07-20T12:45:19;5.7;;;4.1;;
73315;SDS011;61545;53.726;-0.444;2023-07-20T12:50:19;5.8;;;4.1;;
73315;SDS011;61545;53.726;-0.444;2023-07-20T12:55:19;5.8;;;4.1;;
73315;SDS011;61545;53.726;-0.444;2023-07-20T13:00:19;8.4;;;3.9;;
73315;SDS011;61545;53.726;-0.444;2023-07-20T13:05:19;9.0;;;4.5;;
73315;SDS011;61545;53.726;-0.444;2023-07-20T13:10:19;6.1;;;4.5;;
73315;SDS011;61545;53.726;-0.444;2023-07-20T13:15:20;6.6;;;4.1;;
73315;SDS011;61545;53.726;-0.444;2023-07-20T13:20:19;7.7;;;4.5;;
73315;SDS011;61545;53.726;-0.444;2023-07-20T13:25:19;7.7;;;4.5;;
73315;SDS011;61545;53.726;-0.444;2023-07-20T13:30:19;6.7;;;4.7;;
73315;SDS011;61545;53.726;-0.444;2023-07-20T13:35:19;8.0;;;5.6;;
73315;SDS011;61545;53.726;-0.444;2023-07-20T13:40:19;6.4;;;5.1;;
73315;SDS011;61545;53.726;-0.444;2023-07-20T13:45:19;8.4;;;5.6;;
73315;SDS011;61545;53.726;-0.444;2023-07-20T13:50:19;12.6;;;6.1;;
73315;SDS011;61545;53.726;-0.444;2023-07-20T13:55:19;12.6;;;6.1;;
73315;SDS011;61545;53.726;-0.444;2023-07-20T14:00:19;9.2;;;6;;
73315;SDS011;61545;53.726;-0.444;2023-07-20T14:05:19;10.6;;;6;;
73315;SDS011;61545;53.726;-0.444;2023-07-20T14:10:19;8.9;;;6.4;;
73315;SDS011;61545;53.726;-0.444;2023-07-20T14:15:19;9.6;;;6.9;;
73315;SDS011;61545;53.726;-0.444;2023-07-20T14:20:19;8.6;;;6.1;;
73315;SDS011;61545;53.726;-0.444;2023-07-20T14:25:19;8.6;;;6.1;;
73315;SDS011;61545;53.726;-0.444;2023-07-20T14:30:19;7.1;;;5.3;;
73315;SDS011;61545;53.726;-0.444;2023-07-20T14:35:19;6.9;;;5;;
73315;SDS011;61545;53.726;-0.444;2023-07-20T14:40:19;5.3;;;4;;
73315;SDS011;61545;53.726;-0.444;2023-07-20T14:45:19;8.8;;;4.5;;
73315;SDS011;61545;53.726;-0.444;2023-07-20T14:50:19;6.4;;;4;;
73315;SDS011;61545;53.726;-0.444;2023-07-20T14:55:19;6.4;;;4;;
73315;SDS011;61545;53.726;-0.444;2023-07-20T15:00:20;6.0;;;4.4;;
73315;SDS011;61545;53.726;-0.444;2023-07-20T15:05:20;10.9;;;4.9;;
73315;SDS011;61545;53.726;-0.444;2023-07-20T15:10:19;6.2;;;4.5;;
73315;SDS011;61545;53.726;-0.444;2023-07-20T15:15:19;9.3;;;4.7;;
73315;SDS011;61545;53.726;-0.444;2023-07-20T15:20:19;6.3;;;4.1;;
73315;SDS011;61545;53.726;-0.444;2023-07-20T15:25:19;6.3;;;4.1;;
73315;SDS011;61545;53.726;-0.444;2023-07-20T15:30:19;6.1;;;4.3;;
73315;SDS011;61545;53.726;-0.444;2023-07-20T15:35:19;6.6;;;4.1;;
73315;SDS011;61545;53.726;-0.444;2023-07-20T15:40:19;7.9;;;4.4;;
73315;SDS011;61545;53.726;-0.444;2023-07-20T15:45:20;5.0;;;3.5;;
73315;SDS011;61545;53.726;-0.444;2023-07-20T15:50:20;5.8;;;3.8;;
73315;SDS011;61545;53.726;-0.444;2023-07-20T15:55:19;5.8;;;3.8;;
73315;SDS011;61545;53.726;-0.444;2023-07-20T16:00:20;4.8;;;3.6;;
73315;SDS011;61545;53.726;-0.444;2023-07-20T16:05:19;4.6;;;3.1;;
73315;SDS011;61545;53.726;-0.444;2023-07-20T16:10:19;4.7;;;3.1;;
73315;SDS011;61545;53.726;-0.444;2023-07-20T16:15:19;4.9;;;2.9;;
73315;SDS011;61545;53.726;-0.444;2023-07-20T16:20:19;4.9;;;2.9;;
73315;SDS011;61545;53.726;-0.444;2023-07-20T16:25:20;4.5;;;2.7;;
73315;SDS011;61545;53.726;-0.444;2023-07-20T16:30:19;4.5;;;2.8;;
73315;SDS011;61545;53.726;-0.444;2023-07-20T16:35:20;4.7;;;3.1;;
73315;SDS011;61545;53.726;-0.444;2023-07-20T16:40:19;5.2;;;2.8;;
73315;SDS011;61545;53.726;-0.444;2023-07-20T16:45:19;4.0;;;2.7;;
73315;SDS011;61545;53.726;-0.444;2023-07-20T16:50:20;4.0;;;2.7;;
73315;SDS011;61545;53.726;-0.444;2023-07-20T16:55:19;3.9;;;2.7;;
73315;SDS011;61545;53.726;-0.444;2023-07-20T17:00:20;5.2;;;2.7;;
73315;SDS011;61545;53.726;-0.444;2023-07-20T17:05:19;3.4;;;2.4;;
73315;SDS011;61545;53.726;-0.444;2023-07-20T17:10:19;5.2;;;2.5;;
73315;SDS011;61545;53.726;-0.444;2023-07-20T17:15:20;5.2;;;2.3;;
73315;SDS011;61545;53.726;-0.444;2023-07-20T17:20:20;5.2;;;2.3;;
73315;SDS011;61545;53.726;-0.444;2023-07-20T17:25:19;3.6;;;2.5;;
73315;SDS011;61545;53.726;-0.444;2023-07-20T17:30:19;4.5;;;2.7;;
73315;SDS011;61545;53.726;-0.444;2023-07-20T17:35:20;4.4;;;2.4;;
73315;SDS011;61545;53.726;-0.444;2023-07-20T17:40:19;5.4;;;2.8;;
73315;SDS011;61545;53.726;-0.444;2023-07-20T17:45:19;4.7;;;2.9;;
73315;SDS011;61545;53.726;-0.444;2023-07-20T17:50:19;4.7;;;2.9;;
73315;SDS011;61545;53.726;-0.444;2023-07-20T17:55:20;4.9;;;2.9;;
73315;SDS011;61545;53.726;-0.444;2023-07-20T18:00:20;6.3;;;3;;
73315;SDS011;61545;53.726;-0.444;2023-07-20T18:05:19;4.2;;;2.9;;
73315;SDS011;61545;53.726;-0.444;2023-07-20T18:10:19;5.0;;;3.8;;
73315;SDS011;61545;53.726;-0.444;2023-07-20T18:15:20;7.6;;;4.6;;
73315;SDS011;61545;53.726;-0.444;2023-07-20T18:20:19;7.6;;;4.6;;
73315;SDS011;61545;53.726;-0.444;2023-07-20T18:25:20;6.7;;;4.9;;
73315;SDS011;61545;53.726;-0.444;2023-07-20T18:30:20;8.7;;;4.7;;
73315;SDS011;61545;53.726;-0.444;2023-07-20T18:35:19;7.0;;;4.8;;
73315;SDS011;61545;53.726;-0.444;2023-07-20T18:40:19;6.8;;;4.7;;
73315;SDS011;61545;53.726;-0.444;2023-07-20T18:45:20;8.0;;;5.1;;
73315;SDS011;61545;53.726;-0.444;2023-07-20T18:50:20;8.0;;;5.1;;
73315;SDS011;61545;53.726;-0.444;2023-07-20T18:55:19;6.2;;;4.3;;
73315;SDS011;61545;53.726;-0.444;2023-07-20T19:00:19;4.6;;;2.9;;
73315;SDS011;61545;53.726;-0.444;2023-07-20T19:05:19;5.6;;;3.4;;
73315;SDS011;61545;53.726;-0.444;2023-07-20T19:10:20;5.7;;;3.4;;
73315;SDS011;61545;53.726;-0.444;2023-07-20T19:15:19;4.2;;;2.9;;
73315;SDS011;61545;53.726;-0.444;2023-07-20T19:20:19;4.2;;;2.9;;
73315;SDS011;61545;53.726;-0.444;2023-07-20T19:25:20;5.1;;;3.5;;
73315;SDS011;61545;53.726;-0.444;2023-07-20T19:30:20;4.8;;;3.4;;
73315;SDS011;61545;53.726;-0.444;2023-07-20T19:35:19;5.2;;;3;;
73315;SDS011;61545;53.726;-0.444;2023-07-20T19:40:19;3.9;;;2.7;;
73315;SDS011;61545;53.726;-0.444;2023-07-20T19:45:19;4.4;;;2.7;;
73315;SDS011;61545;53.726;-0.444;2023-07-20T19:50:20;4.4;;;2.7;;
73315;SDS011;61545;53.726;-0.444;2023-07-20T19:55:19;4.2;;;3;;
73315;SDS011;61545;53.726;-0.444;2023-07-20T20:00:20;6.4;;;2.9;;
73315;SDS011;61545;53.726;-0.444;2023-07-20T20:05:20;5.8;;;3.3;;
73315;SDS011;61545;53.726;-0.444;2023-07-20T20:10:20;4.3;;;3;;
73315;SDS011;61545;53.726;-0.444;2023-07-20T20:15:19;7.4;;;3.1;;
73315;SDS011;61545;53.726;-0.444;2023-07-20T20:20:20;7.4;;;3.1;;
73315;SDS011;61545;53.726;-0.444;2023-07-20T20:25:19;14.4;;;2.9;;
73315;SDS011;61545;53.726;-0.444;2023-07-20T20:30:20;6.1;;;3.4;;
73315;SDS011;61545;53.726;-0.444;2023-07-20T20:35:20;4.1;;;2.8;;
73315;SDS011;61545;53.726;-0.444;2023-07-20T20:40:20;3.5;;;2.4;;
73315;SDS011;61545;53.726;-0.444;2023-07-20T20:45:20;4.9;;;2.6;;
73315;SDS011;61545;53.726;-0.444;2023-07-20T20:50:20;4.9;;;2.6;;
73315;SDS011;61545;53.726;-0.444;2023-07-20T20:55:20;3.9;;;2.7;;
73315;SDS011;61545;53.726;-0.444;2023-07-20T21:00:20;6.1;;;3.2;;
73315;SDS011;61545;53.726;-0.444;2023-07-20T21:05:20;5.5;;;2.7;;
73315;SDS011;61545;53.726;-0.444;2023-07-20T21:10:20;4.0;;;2.9;;
73315;SDS011;61545;53.726;-0.444;2023-07-20T21:15:19;5.8;;;2.8;;
73315;SDS011;61545;53.726;-0.444;2023-07-20T21:20:20;5.8;;;2.8;;
73315;SDS011;61545;53.726;-0.444;2023-07-20T21:25:20;5.5;;;3.3;;
73315;SDS011;61545;53.726;-0.444;2023-07-20T21:30:20;4.4;;;3;;
73315;SDS011;61545;53.726;-0.444;2023-07-20T21:35:19;5.8;;;3.3;;
73315;SDS011;61545;53.726;-0.444;2023-07-20T21:40:20;5.3;;;3;;
73315;SDS011;61545;53.726;-0.444;2023-07-20T21:45:20;5.2;;;3.4;;
73315;SDS011;61545;53.726;-0.444;2023-07-20T21:50:20;5.2;;;3.4;;
73315;SDS011;61545;53.726;-0.444;2023-07-20T21:55:20;7.3;;;4;;
73315;SDS011;61545;53.726;-0.444;2023-07-20T22:00:20;7.1;;;4.3;;
73315;SDS011;61545;53.726;-0.444;2023-07-20T22:05:20;9.0;;;4.7;;
73315;SDS011;61545;53.726;-0.444;2023-07-20T22:10:20;8.0;;;5.4;;
73315;SDS011;61545;53.726;-0.444;2023-07-20T22:15:20;10.7;;;6.4;;
73315;SDS011;61545;53.726;-0.444;2023-07-20T22:20:20;10.7;;;6.4;;
73315;SDS011;61545;53.726;-0.444;2023-07-20T22:25:20;9.3;;;6.2;;
73315;SDS011;61545;53.726;-0.444;2023-07-20T22:30:20;11.6;;;6.6;;
73315;SDS011;61545;53.726;-0.444;2023-07-20T22:35:20;10.5;;;6.7;;
73315;SDS011;61545;53.726;-0.444;2023-07-20T22:40:20;17.4;;;7.3;;
73315;SDS011;61545;53.726;-0.444;2023-07-20T22:45:20;12.0;;;7.3;;
73315;SDS011;61545;53.726;-0.444;2023-07-20T22:50:20;12.0;;;7.3;;
73315;SDS011;61545;53.726;-0.444;2023-07-20T22:55:20;10.8;;;6.6;;
73315;SDS011;61545;53.726;-0.444;2023-07-20T23:00:20;9.3;;;6.6;;
73315;SDS011;61545;53.726;-0.444;2023-07-20T23:05:20;10.4;;;7.3;;
73315;SDS011;61545;53.726;-0.444;2023-07-20T23:10:20;10.5;;;6.4;;
73315;SDS011;61545;53.726;-0.444;2023-07-20T23:15:20;6.8;;;5.3;;
73315;SDS011;61545;53.726;-0.444;2023-07-20T23:20:20;6.8;;;5.3;;
73315;SDS011;61545;53.726;-0.444;2023-07-20T23:25:20;8.3;;;6;;
73315;SDS011;61545;53.726;-0.444;2023-07-20T23:30:20;6.7;;;5.7;;
73315;SDS011;61545;53.726;-0.444;2023-07-20T23:35:20;9.5;;;5.6;;
73315;SDS011;61545;53.726;-0.444;2023-07-20T23:40:20;14.2;;;6.2;;
73315;SDS011;61545;53.726;-0.444;2023-07-20T23:45:20;15.8;;;6.9;;
73315;SDS011;61545;53.726;-0.444;2023-07-20T23:50:20;15.8;;;6.9;;
73315;SDS011;61545;53.726;-0.444;2023-07-20T23:55:20;11.3;;;6.2;;
